Time;durP1;ratioP1;P1;durP2;ratioP2;P2;SDS_P1;SDS_P2;PMS_P1;PMS_P2;Temp;Humidity;BMP_temperature;BMP_pressure;BME280_temperature;BME280_humidity;BME280_pressure;Samples;Min_cycle;Max_cycle;Signal;HPM_P1;HPM_P2
2023/12/31 00:01:58;;;;;;;10.35;9.35;;;;;;;6.14;81.90;97549.03;5031786;28;20288;-71
2023/12/31 00:04:25;;;;;;;9.98;8.77;;;;;;;6.07;82.15;97551.63;5033465;28;20202;-72
2023/12/31 00:06:51;;;;;;;10.32;9.32;;;;;;;5.89;83.11;97536.88;5032630;28;20308;-73
2023/12/31 00:09:18;;;;;;;9.48;8.43;;;;;;;5.89;82.95;97540.41;5027571;28;20204;-72
2023/12/31 00:11:45;;;;;;;8.85;8.05;;;;;;;5.95;82.40;97526.25;5031161;28;20207;-73
2023/12/31 00:14:12;;;;;;;9.82;8.93;;;;;;;6.05;82.11;97534.03;5031577;28;20197;-72
2023/12/31 00:16:38;;;;;;;10.60;9.50;;;;;;;5.97;82.08;97521.53;5027973;28;20955;-72
2023/12/31 00:19:08;;;;;;;9.35;8.45;;;;;;;5.93;82.23;97514.84;5033038;28;20246;-72
2023/12/31 00:21:35;;;;;;;10.15;9.13;;;;;;;5.84;82.76;97507.06;5021030;28;20690;-72
2023/12/31 00:24:02;;;;;;;9.73;8.60;;;;;;;5.80;82.58;97509.28;5034007;28;20818;-72
2023/12/31 00:26:28;;;;;;;10.40;8.43;;;;;;;5.85;82.80;97501.47;5033494;28;20253;-72
2023/12/31 00:28:55;;;;;;;10.32;9.15;;;;;;;5.80;82.62;97503.91;5030964;28;20198;-73
2023/12/31 00:31:22;;;;;;;9.40;8.48;;;;;;;5.92;82.20;97499.75;5032106;28;20198;-72
2023/12/31 00:33:50;;;;;;;8.70;7.90;;;;;;;5.92;81.72;97491.69;5034414;28;20209;-73
2023/12/31 00:36:18;;;;;;;8.90;8.00;;;;;;;5.80;81.79;97490.50;5033451;28;20882;-72
2023/12/31 00:38:48;;;;;;;9.48;8.68;;;;;;;5.89;82.01;97491.25;5036341;28;20209;-72
2023/12/31 00:41:15;;;;;;;10.65;9.20;;;;;;;5.89;81.85;97480.50;5034333;28;20228;-72
2023/12/31 00:43:41;;;;;;;9.98;8.70;;;;;;;5.69;81.98;97464.94;5030235;28;20284;-72
2023/12/31 00:46:08;;;;;;;9.45;8.55;;;;;;;5.65;82.85;97478.91;5037417;28;20216;-73
2023/12/31 00:48:35;;;;;;;10.60;9.35;;;;;;;5.62;82.81;97465.84;5033242;28;20718;-72
2023/12/31 00:51:02;;;;;;;10.45;9.30;;;;;;;5.55;83.51;97479.16;5015194;28;20242;-73
2023/12/31 00:53:30;;;;;;;9.40;8.55;;;;;;;5.55;83.51;97467.59;5034255;28;20205;-72
2023/12/31 00:55:56;;;;;;;10.57;9.45;;;;;;;5.44;83.99;97470.75;5038134;28;20224;-72
2023/12/31 00:58:24;;;;;;;10.27;9.27;;;;;;;5.47;84.08;97465.88;5034661;28;20253;-72
2023/12/31 01:00:51;;;;;;;9.82;8.93;;;;;;;5.47;83.82;97462.34;5033105;28;20284;-72
2023/12/31 01:03:17;;;;;;;10.50;9.50;;;;;;;5.39;83.82;97450.69;5032782;28;20206;-73
2023/12/31 01:05:44;;;;;;;10.68;9.57;;;;;;;5.30;84.23;97448.25;5033348;28;20290;-72
2023/12/31 01:08:11;;;;;;;11.50;9.65;;;;;;;5.27;84.36;97449.47;5037555;28;20695;-72
2023/12/31 01:10:39;;;;;;;10.68;9.32;;;;;;;5.22;84.37;97446.47;5026116;28;20201;-72
2023/12/31 01:13:08;;;;;;;11.15;10.05;;;;;;;5.16;84.37;97446.41;5027700;28;20599;-72
2023/12/31 01:15:36;;;;;;;10.60;9.70;;;;;;;5.12;84.93;97442.41;5022857;28;20656;-72
2023/12/31 01:18:03;;;;;;;11.40;10.20;;;;;;;5.15;84.94;97445.56;5024870;28;20755;-72
2023/12/31 01:20:31;;;;;;;11.23;9.63;;;;;;;5.10;84.78;97447.13;5027302;28;20209;-72
2023/12/31 01:22:57;;;;;;;11.15;10.05;;;;;;;5.09;84.96;97446.31;5026250;28;20754;-72
2023/12/31 01:25:25;;;;;;;10.98;9.93;;;;;;;5.09;84.97;97443.63;5027401;28;20323;-72
2023/12/31 01:27:55;;;;;;;9.70;8.80;;;;;;;5.29;84.29;97444.75;5011499;28;20701;-72
2023/12/31 01:30:21;;;;;;;10.40;9.50;;;;;;;5.12;84.54;97440.56;5022768;28;20210;-73
2023/12/31 01:32:49;;;;;;;10.10;9.10;;;;;;;5.17;84.37;97438.19;5026710;28;20212;-72
2023/12/31 01:35:18;;;;;;;11.02;9.77;;;;;;;5.05;84.57;97431.59;5025105;28;20287;-72
2023/12/31 01:37:44;;;;;;;10.65;9.30;;;;;;;4.79;85.33;97423.13;5027888;28;20742;-72
2023/12/31 01:40:11;;;;;;;9.57;8.77;;;;;;;4.72;86.06;97413.13;5019103;28;20655;-72
2023/12/31 01:42:38;;;;;;;10.18;9.18;;;;;;;4.68;85.81;97409.13;5025787;28;20204;-73
2023/12/31 01:45:07;;;;;;;11.10;10.00;;;;;;;4.71;85.70;97397.22;5024411;28;20235;-72
2023/12/31 01:47:35;;;;;;;10.18;8.85;;;;;;;4.52;86.19;97398.56;5025658;28;20222;-72
2023/12/31 01:50:04;;;;;;;10.40;8.88;;;;;;;4.46;86.82;97396.59;5037023;28;20230;-73
2023/12/31 01:52:31;;;;;;;9.88;9.00;;;;;;;4.46;86.96;97391.25;5023722;28;20210;-72
2023/12/31 01:55:00;;;;;;;9.38;8.48;;;;;;;4.42;87.11;97381.91;5025332;28;20285;-72
2023/12/31 01:57:28;;;;;;;12.25;9.13;;;;;;;4.48;86.96;97383.84;5025772;28;20240;-72
2023/12/31 01:59:58;;;;;;;10.25;9.35;;;;;;;4.43;86.74;97380.03;5025091;28;20202;-72
2023/12/31 02:02:27;;;;;;;10.60;9.27;;;;;;;4.07;87.99;97372.63;5027942;28;20197;-72
2023/12/31 02:04:54;;;;;;;9.73;8.82;;;;;;;4.21;88.03;97371.03;5022854;28;20624;-72
2023/12/31 02:07:20;;;;;;;11.30;9.88;;;;;;;4.04;88.38;97373.78;5024905;28;20312;-72
2023/12/31 02:09:47;;;;;;;9.98;8.98;;;;;;;3.94;88.76;97377.72;5008699;28;20305;-72
2023/12/31 02:12:14;;;;;;;11.32;9.85;;;;;;;3.98;88.31;97374.50;5024717;28;20209;-72
2023/12/31 02:14:41;;;;;;;11.88;10.68;;;;;;;4.00;87.95;97377.00;5025373;28;20237;-72
2023/12/31 02:17:08;;;;;;;12.45;11.25;;;;;;;3.81;87.95;97354.22;5025452;28;20241;-73
2023/12/31 02:19:35;;;;;;;11.18;10.18;;;;;;;3.75;88.44;97357.59;5008940;28;20214;-72
2023/12/31 02:22:04;;;;;;;10.98;9.95;;;;;;;3.55;89.64;97354.53;5024784;28;20614;-72
2023/12/31 02:24:34;;;;;;;13.57;10.00;;;;;;;3.57;89.35;97357.03;5024780;28;20202;-73
2023/12/31 02:27:02;;;;;;;10.60;9.52;;;;;;;3.54;89.62;97346.69;5024776;28;20267;-73
2023/12/31 02:29:29;;;;;;;11.65;10.50;;;;;;;3.55;89.27;97351.03;4985179;28;20245;-73
2023/12/31 02:31:56;;;;;;;11.40;10.40;;;;;;;3.64;88.71;97352.63;5008745;28;20568;-72
2023/12/31 02:34:22;;;;;;;10.73;9.73;;;;;;;3.41;89.79;97343.72;5026264;28;20880;-72
2023/12/31 02:36:50;;;;;;;12.82;11.52;;;;;;;3.44;89.64;97338.88;5025754;28;20208;-72
2023/12/31 02:39:17;;;;;;;12.02;10.82;;;;;;;3.32;90.42;97338.41;5029353;28;20206;-72
2023/12/31 02:41:45;;;;;;;12.60;11.30;;;;;;;3.37;89.97;97330.69;5031750;28;20845;-72
2023/12/31 02:44:15;;;;;;;13.25;11.77;;;;;;;3.25;90.42;97321.38;5025457;28;20263;-72
2023/12/31 02:46:44;;;;;;;12.95;11.75;;;;;;;3.12;91.33;97307.78;5029291;28;20232;-72
2023/12/31 02:49:12;;;;;;;14.52;12.02;;;;;;;3.20;91.45;97302.41;5023173;28;20633;-72
2023/12/31 02:51:39;;;;;;;14.48;11.13;;;;;;;3.35;90.94;97295.28;5028187;28;20202;-72
2023/12/31 02:54:06;;;;;;;12.13;10.93;;;;;;;3.28;91.38;97304.16;5035033;28;20755;-72
2023/12/31 02:56:39;;;;;;;12.50;11.15;;;;;;;3.28;91.44;97283.63;5032243;28;20627;-72
2023/12/31 02:59:06;;;;;;;12.48;11.27;;;;;;;3.44;91.34;97276.53;5028364;28;20216;-72
2023/12/31 03:01:42;;;;;;;12.57;11.27;;;;;;;3.43;91.33;97274.84;5023888;28;20388;-72
2023/12/31 03:04:08;;;;;;;11.88;10.75;;;;;;;3.65;90.82;97257.97;5032859;28;20311;-72
2023/12/31 03:06:37;;;;;;;12.20;10.82;;;;;;;3.74;90.64;97262.28;5025217;28;20874;-74
2023/12/31 03:09:06;;;;;;;13.52;10.95;;;;;;;3.87;90.10;97256.34;5028957;28;20205;-72
2023/12/31 03:11:33;;;;;;;11.07;9.88;;;;;;;3.94;89.79;97251.91;5028355;28;20280;-72
2023/12/31 03:14:00;;;;;;;12.95;11.35;;;;;;;3.93;89.68;97242.22;5030747;28;20293;-72
2023/12/31 03:16:26;;;;;;;12.48;10.65;;;;;;;3.93;89.70;97234.19;5013829;28;20216;-72
2023/12/31 03:18:54;;;;;;;15.25;10.43;;;;;;;4.13;89.15;97234.53;5035171;28;20210;-72
2023/12/31 03:21:21;;;;;;;14.27;11.25;;;;;;;4.16;88.83;97226.13;5046101;28;20213;-72
2023/12/31 03:23:48;;;;;;;11.75;10.57;;;;;;;4.23;88.65;97230.53;5017710;28;20289;-72
2023/12/31 03:26:14;;;;;;;11.98;10.32;;;;;;;4.34;88.07;97230.09;5030048;28;20320;-72
2023/12/31 03:28:41;;;;;;;11.60;10.45;;;;;;;4.28;88.08;97227.31;5028138;28;20220;-72
2023/12/31 03:31:09;;;;;;;11.73;10.63;;;;;;;4.36;87.99;97224.56;5014195;28;20228;-72
2023/12/31 03:33:36;;;;;;;11.32;10.23;;;;;;;4.34;87.90;97219.41;5017546;28;20212;-73
2023/12/31 03:36:06;;;;;;;10.85;9.82;;;;;;;4.37;87.66;97219.03;5045510;28;20201;-72
2023/12/31 03:38:33;;;;;;;10.65;9.65;;;;;;;4.44;87.25;97218.31;5029434;28;20677;-72
2023/12/31 03:40:59;;;;;;;11.95;9.50;;;;;;;4.30;87.40;97214.59;5029683;28;20204;-72
2023/12/31 03:43:26;;;;;;;10.27;9.27;;;;;;;4.19;87.85;97201.66;5029270;28;20793;-72
2023/12/31 03:45:52;;;;;;;9.30;8.40;;;;;;;4.31;88.04;97201.00;5028200;28;20215;-72
2023/12/31 03:48:19;;;;;;;9.68;8.70;;;;;;;4.42;87.70;97196.22;5023356;28;20223;-72
2023/12/31 03:50:46;;;;;;;10.45;9.45;;;;;;;4.37;87.65;97199.44;5027390;28;20198;-72
2023/12/31 03:53:14;;;;;;;9.30;8.35;;;;;;;4.37;87.32;97181.53;4999778;28;20214;-73
2023/12/31 03:55:40;;;;;;;9.23;8.43;;;;;;;4.54;87.28;97190.22;5029203;28;20285;-72
2023/12/31 03:58:07;;;;;;;9.00;8.20;;;;;;;4.60;86.72;97178.75;5027963;28;20234;-72
2023/12/31 04:00:34;;;;;;;8.50;7.70;;;;;;;4.73;86.35;97173.56;5019098;28;20618;-72
2023/12/31 04:03:01;;;;;;;8.02;7.32;;;;;;;4.68;85.96;97159.91;5025154;28;20226;-72
2023/12/31 04:05:28;;;;;;;8.63;7.82;;;;;;;4.88;85.42;97170.03;5028200;28;20201;-72
2023/12/31 04:07:55;;;;;;;8.05;7.35;;;;;;;4.81;85.65;97169.97;5020773;28;20688;-72
2023/12/31 04:10:23;;;;;;;9.02;8.18;;;;;;;4.76;85.48;97160.81;5028655;28;20251;-72
2023/12/31 04:12:49;;;;;;;8.63;7.82;;;;;;;4.85;85.40;97157.03;5024606;28;20197;-72
2023/12/31 04:15:16;;;;;;;8.18;7.38;;;;;;;4.93;84.90;97156.88;5026236;28;20293;-72
2023/12/31 04:17:43;;;;;;;8.23;7.43;;;;;;;4.93;84.62;97147.00;5015302;28;20305;-72
2023/12/31 04:20:13;;;;;;;8.13;7.30;;;;;;;4.93;84.38;97147.00;5027788;28;20233;-72
2023/12/31 04:22:39;;;;;;;7.05;6.35;;;;;;;4.96;84.12;97143.94;5017996;28;20272;-72
2023/12/31 04:25:07;;;;;;;7.07;6.35;;;;;;;4.98;83.82;97125.81;5025568;28;20288;-72
2023/12/31 04:27:38;;;;;;;8.25;7.07;;;;;;;4.82;84.14;97122.56;5025225;28;20233;-72
2023/12/31 04:30:06;;;;;;;8.00;7.20;;;;;;;4.96;83.65;97121.66;5027836;28;20260;-72
2023/12/31 04:32:32;;;;;;;6.60;6.00;;;;;;;4.87;83.83;97120.13;5022198;28;20281;-72
2023/12/31 04:34:59;;;;;;;6.70;6.10;;;;;;;4.94;83.37;97121.00;5024792;28;20209;-73
2023/12/31 04:37:27;;;;;;;6.53;5.78;;;;;;;4.96;83.26;97113.63;5025765;28;20202;-73
2023/12/31 04:39:54;;;;;;;6.45;5.82;;;;;;;4.88;83.43;97113.72;5020982;28;20763;-73
2023/12/31 04:42:20;;;;;;;6.85;6.15;;;;;;;4.88;83.17;97113.72;5009680;28;20213;-73
2023/12/31 04:44:48;;;;;;;7.20;6.18;;;;;;;5.06;82.86;97116.81;5025928;28;20206;-72
2023/12/31 04:47:15;;;;;;;7.82;6.45;;;;;;;4.98;82.78;97108.91;5022248;28;20285;-72
2023/12/31 04:49:42;;;;;;;6.65;5.78;;;;;;;4.98;82.55;97100.84;5018318;28;20261;-72
2023/12/31 04:52:09;;;;;;;6.40;5.80;;;;;;;4.96;82.73;97094.84;5026622;28;20233;-73
2023/12/31 04:54:36;;;;;;;6.15;5.65;;;;;;;4.94;82.73;97099.56;5023944;28;20201;-72
2023/12/31 04:57:04;;;;;;;6.72;6.13;;;;;;;5.01;82.18;97100.47;5023238;28;20200;-72
2023/12/31 04:59:30;;;;;;;5.75;5.25;;;;;;;4.91;82.30;97078.50;5009578;28;20201;-73
2023/12/31 05:01:59;;;;;;;6.22;5.72;;;;;;;4.89;82.35;97089.41;5024229;28;21007;-72
2023/12/31 05:04:26;;;;;;;5.70;5.20;;;;;;;4.95;82.05;97090.50;5006648;28;20287;-72
2023/12/31 05:06:52;;;;;;;5.47;5.00;;;;;;;5.01;82.10;97089.75;5025166;28;20204;-72
2023/12/31 05:09:19;;;;;;;5.97;5.45;;;;;;;5.06;81.40;97076.59;5025568;28;20214;-72
2023/12/31 05:11:46;;;;;;;6.80;5.65;;;;;;;5.12;80.80;97081.22;5026874;28;20727;-73
2023/12/31 05:14:12;;;;;;;5.97;5.47;;;;;;;5.05;80.82;97075.78;5026599;28;20336;-73
2023/12/31 05:16:39;;;;;;;6.20;5.60;;;;;;;5.04;80.89;97078.66;5024588;28;20843;-72
2023/12/31 05:19:07;;;;;;;5.90;5.40;;;;;;;5.13;80.52;97082.03;5016309;28;20686;-72
2023/12/31 05:21:35;;;;;;;6.38;5.70;;;;;;;5.12;80.29;97080.38;5025115;28;20198;-73
2023/12/31 05:24:02;;;;;;;5.40;4.90;;;;;;;5.02;80.66;97081.53;5025960;28;21506;-72
2023/12/31 05:26:29;;;;;;;5.70;5.20;;;;;;;5.00;80.44;97074.69;5018031;28;20198;-73
2023/12/31 05:28:55;;;;;;;6.05;5.55;;;;;;;5.02;80.48;97078.84;5026117;28;20309;-73
2023/12/31 05:31:22;;;;;;;5.95;5.35;;;;;;;5.07;80.21;97072.91;5027907;28;20287;-72
2023/12/31 05:33:50;;;;;;;5.05;4.53;;;;;;;5.06;79.79;97068.56;5024438;28;20317;-73
2023/12/31 05:36:18;;;;;;;5.88;5.40;;;;;;;4.95;80.38;97069.88;5026760;28;20206;-72
2023/12/31 05:38:44;;;;;;;5.22;4.82;;;;;;;4.97;80.29;97064.34;5024311;28;20280;-73
2023/12/31 05:41:11;;;;;;;5.95;5.00;;;;;;;5.02;79.62;97052.03;5041940;28;20216;-73
2023/12/31 05:43:38;;;;;;;5.70;5.10;;;;;;;4.94;79.69;97056.66;5032725;28;20277;-72
2023/12/31 05:46:05;;;;;;;5.05;4.55;;;;;;;5.01;79.72;97055.72;5027757;28;20202;-72
2023/12/31 05:48:31;;;;;;;4.85;4.45;;;;;;;5.07;79.25;97049.59;5029957;28;20304;-72
2023/12/31 05:50:59;;;;;;;5.13;4.63;;;;;;;5.09;79.31;97037.84;5006272;28;20935;-73
2023/12/31 05:53:27;;;;;;;5.20;4.72;;;;;;;5.00;79.22;97035.28;5029087;28;20284;-73
2023/12/31 05:55:54;;;;;;;5.18;4.63;;;;;;;5.08;79.14;97031.66;5023595;28;20292;-73
2023/12/31 05:58:21;;;;;;;5.40;4.90;;;;;;;5.13;78.36;97034.59;5015091;28;20978;-72
2023/12/31 06:00:47;;;;;;;4.63;4.07;;;;;;;5.09;78.26;97038.69;5008360;28;20200;-72
2023/12/31 06:03:14;;;;;;;5.20;4.70;;;;;;;4.92;78.93;97048.81;5024089;28;20284;-72
2023/12/31 06:05:40;;;;;;;5.50;5.00;;;;;;;4.86;79.68;97044.25;5025567;28;20196;-72
2023/12/31 06:08:07;;;;;;;5.07;4.57;;;;;;;4.87;79.61;97031.69;5026393;28;20950;-72
2023/12/31 06:10:35;;;;;;;5.10;4.60;;;;;;;4.76;79.68;97033.00;5025958;28;20198;-71
2023/12/31 06:13:02;;;;;;;4.75;4.30;;;;;;;4.83;79.71;97033.06;5041332;28;20201;-72
2023/12/31 06:15:29;;;;;;;4.60;4.20;;;;;;;4.97;78.87;97033.00;5029014;28;20582;-72
2023/12/31 06:17:55;;;;;;;4.07;3.78;;;;;;;5.01;78.62;97030.75;5027894;28;20300;-72
2023/12/31 06:20:22;;;;;;;5.55;4.18;;;;;;;5.24;77.92;97027.88;5030621;28;20292;-71
2023/12/31 06:22:49;;;;;;;4.50;4.10;;;;;;;5.32;77.30;97030.41;5014806;28;20202;-72
2023/12/31 06:25:16;;;;;;;4.15;3.85;;;;;;;5.46;76.50;97029.50;5026621;28;20201;-72
2023/12/31 06:27:44;;;;;;;3.95;3.65;;;;;;;5.42;76.24;97017.50;5045029;28;20290;-72
2023/12/31 06:30:11;;;;;;;4.60;4.15;;;;;;;5.45;75.88;97021.66;5032212;28;20525;-72
2023/12/31 06:32:40;;;;;;;4.72;4.32;;;;;;;5.43;75.96;97024.53;5011030;28;20233;-72
2023/12/31 06:35:08;;;;;;;4.07;3.67;;;;;;;5.55;75.64;97030.16;5029771;28;20974;-72
2023/12/31 06:37:34;;;;;;;4.70;4.30;;;;;;;5.43;76.25;97050.53;5031682;28;20233;-71
2023/12/31 06:40:01;;;;;;;3.70;3.40;;;;;;;5.63;75.77;97030.03;5030689;28;20291;-72
2023/12/31 06:42:28;;;;;;;3.63;3.38;;;;;;;5.75;75.20;97033.84;5012831;28;20198;-72
2023/12/31 06:45:00;;;;;;;3.25;3.05;;;;;;;5.67;74.96;97036.66;5027641;28;20753;-72
2023/12/31 06:47:26;;;;;;;3.50;3.10;;;;;;;5.74;74.15;97027.63;5027481;28;20655;-73
2023/12/31 06:49:53;;;;;;;3.60;3.30;;;;;;;5.90;74.01;97023.81;5032018;28;20302;-72
2023/12/31 06:52:20;;;;;;;3.30;3.00;;;;;;;5.95;74.16;97021.38;5020952;28;20206;-72
2023/12/31 06:54:47;;;;;;;5.28;3.40;;;;;;;5.97;74.47;97022.00;5027090;28;20206;-72
2023/12/31 06:57:13;;;;;;;3.20;2.90;;;;;;;5.94;73.65;97030.47;5028484;28;20220;-72
2023/12/31 06:59:41;;;;;;;3.13;2.90;;;;;;;6.05;73.03;97027.22;5027413;28;20201;-72
2023/12/31 07:02:09;;;;;;;4.65;3.65;;;;;;;6.10;73.50;97018.56;5020113;28;20220;-73
2023/12/31 07:04:36;;;;;;;4.15;3.75;;;;;;;6.08;73.11;97023.31;5028679;28;20216;-73
2023/12/31 07:07:03;;;;;;;3.90;3.50;;;;;;;6.07;73.77;97025.19;5022212;28;20206;-71
2023/12/31 07:09:30;;;;;;;4.00;3.60;;;;;;;5.97;73.51;97021.19;5027882;28;20218;-74
2023/12/31 07:11:57;;;;;;;4.07;3.50;;;;;;;6.11;73.15;97022.91;5007948;28;20197;-74
2023/12/31 07:14:24;;;;;;;3.60;3.30;;;;;;;6.13;73.51;97028.94;5011224;28;20289;-73
2023/12/31 07:16:51;;;;;;;2.97;2.78;;;;;;;6.04;73.48;97028.25;5040882;28;20217;-73
2023/12/31 07:19:19;;;;;;;3.70;3.40;;;;;;;6.02;73.45;97024.09;5028002;28;20225;-72
2023/12/31 07:21:46;;;;;;;5.05;3.60;;;;;;;5.90;74.12;97036.41;5031062;28;20197;-72
2023/12/31 07:24:14;;;;;;;3.33;3.13;;;;;;;5.92;74.09;97037.88;5014152;28;20252;-73
2023/12/31 07:26:41;;;;;;;2.55;2.35;;;;;;;5.96;73.38;97041.84;5028893;28;20303;-73
2023/12/31 07:29:07;;;;;;;3.08;2.60;;;;;;;6.06;73.26;97042.31;5035563;28;20217;-73
2023/12/31 07:31:35;;;;;;;2.42;2.22;;;;;;;6.14;73.14;97045.88;5028869;28;20663;-74
2023/12/31 07:34:03;;;;;;;2.80;2.55;;;;;;;6.24;73.63;97054.38;5028048;28;20639;-74
2023/12/31 07:36:31;;;;;;;3.13;2.83;;;;;;;6.16;73.85;97044.66;5027516;28;20210;-75
2023/12/31 07:38:57;;;;;;;2.60;2.40;;;;;;;6.05;73.92;97045.19;5018082;28;20202;-75
2023/12/31 07:41:23;;;;;;;2.93;2.63;;;;;;;6.16;73.53;97035.75;5027316;28;20202;-75
2023/12/31 07:43:50;;;;;;;2.30;2.10;;;;;;;6.24;73.25;97046.31;5009708;28;20620;-74
2023/12/31 07:46:18;;;;;;;5.00;3.30;;;;;;;6.28;73.01;97034.16;5025818;28;20210;-75
2023/12/31 07:48:45;;;;;;;2.63;2.42;;;;;;;6.33;72.81;97048.63;5031441;28;20775;-74
2023/12/31 07:51:11;;;;;;;2.40;2.20;;;;;;;6.16;73.33;97058.09;5027056;28;20676;-74
2023/12/31 07:53:40;;;;;;;2.70;2.45;;;;;;;6.00;73.48;97044.97;5017545;28;20847;-75
2023/12/31 07:56:07;;;;;;;2.53;2.33;;;;;;;6.02;73.60;97041.06;5008787;28;20288;-74
2023/12/31 07:58:34;;;;;;;3.40;2.40;;;;;;;6.15;73.48;97045.69;5004231;28;20208;-75
2023/12/31 08:01:02;;;;;;;2.28;2.15;;;;;;;6.23;72.89;97047.34;5018522;28;20676;-75
2023/12/31 08:03:29;;;;;;;2.90;2.70;;;;;;;6.10;73.13;97037.38;5008156;28;20288;-75
2023/12/31 08:05:56;;;;;;;2.70;2.50;;;;;;;6.23;72.89;97024.00;5025942;28;20788;-75
2023/12/31 08:08:23;;;;;;;3.17;2.90;;;;;;;6.19;73.00;97029.97;5027081;28;20198;-74
2023/12/31 08:10:52;;;;;;;2.78;2.58;;;;;;;6.10;73.27;97031.19;5023566;28;20213;-75
2023/12/31 08:13:18;;;;;;;3.15;2.95;;;;;;;6.13;73.49;97030.78;5027053;28;20209;-75
2023/12/31 08:15:45;;;;;;;2.78;2.58;;;;;;;6.13;73.50;97030.78;5024824;28;20772;-75
2023/12/31 08:18:11;;;;;;;3.20;2.90;;;;;;;6.16;73.11;97022.31;5025236;28;20213;-75
2023/12/31 08:20:41;;;;;;;3.15;2.95;;;;;;;6.07;73.62;97022.50;5023780;28;20205;-75
2023/12/31 08:23:07;;;;;;;3.22;3.03;;;;;;;6.10;73.43;97015.06;5041462;28;20212;-74
2023/12/31 08:25:34;;;;;;;3.67;3.38;;;;;;;6.09;73.63;97024.97;5037158;28;20232;-76
2023/12/31 08:28:03;;;;;;;3.30;3.00;;;;;;;6.11;73.32;97016.72;5033853;28;20198;-74
2023/12/31 08:30:29;;;;;;;3.33;3.08;;;;;;;6.15;72.85;97029.56;5024988;28;20217;-74
2023/12/31 08:32:57;;;;;;;3.47;2.97;;;;;;;6.17;72.52;97021.31;5027464;28;20194;-74
2023/12/31 08:35:26;;;;;;;3.80;3.50;;;;;;;6.21;72.39;97017.16;5027562;28;20232;-74
2023/12/31 08:37:52;;;;;;;3.80;3.50;;;;;;;6.28;72.05;97018.84;5045699;28;20287;-75
2023/12/31 08:40:19;;;;;;;3.50;3.20;;;;;;;6.22;71.99;97019.66;5009141;28;20241;-75
2023/12/31 08:42:46;;;;;;;3.42;3.17;;;;;;;6.23;72.42;97009.72;5007170;28;20213;-75
2023/12/31 08:45:14;;;;;;;3.50;3.17;;;;;;;6.28;71.52;97002.72;5015476;28;20190;-74
2023/12/31 08:47:41;;;;;;;2.60;2.40;;;;;;;6.38;70.81;97002.38;5026510;28;20213;-74
2023/12/31 08:50:09;;;;;;;2.60;2.40;;;;;;;6.51;70.11;97007.75;5022177;28;20237;-74
2023/12/31 08:52:40;;;;;;;3.33;2.90;;;;;;;6.60;69.67;96995.81;5023626;28;20201;-74
2023/12/31 08:55:07;;;;;;;2.72;2.53;;;;;;;6.63;68.98;96984.66;5029339;28;21016;-74
2023/12/31 08:57:34;;;;;;;2.42;2.22;;;;;;;6.76;68.21;96983.03;5024699;28;20202;-74
2023/12/31 09:00:01;;;;;;;2.97;2.65;;;;;;;6.95;67.96;96991.13;5025189;28;20197;-74
2023/12/31 09:02:29;;;;;;;2.92;2.72;;;;;;;6.88;67.88;96982.19;5017966;28;20198;-75
2023/12/31 09:04:56;;;;;;;2.80;2.60;;;;;;;6.94;67.41;96977.88;5025117;28;20213;-76
2023/12/31 09:07:22;;;;;;;2.67;2.47;;;;;;;6.98;67.93;96982.63;5016207;28;20293;-75
2023/12/31 09:09:49;;;;;;;2.50;2.30;;;;;;;6.97;67.96;96990.91;5024801;28;20303;-75
2023/12/31 09:12:16;;;;;;;2.50;2.30;;;;;;;7.01;67.79;96976.03;5023983;28;20266;-75
2023/12/31 09:14:43;;;;;;;3.58;2.70;;;;;;;7.00;68.29;96979.75;5028659;28;20217;-75
2023/12/31 09:17:11;;;;;;;2.67;2.47;;;;;;;7.07;68.06;96980.59;5021261;28;20241;-76
2023/12/31 09:19:40;;;;;;;3.10;2.60;;;;;;;7.12;67.85;96994.25;5001712;28;21153;-75
2023/12/31 09:22:10;;;;;;;3.30;3.00;;;;;;;7.13;67.57;96974.38;5022635;28;20706;-75
2023/12/31 09:24:38;;;;;;;5.15;2.90;;;;;;;7.02;67.79;96967.75;5021570;28;20202;-75
2023/12/31 09:27:07;;;;;;;3.33;2.90;;;;;;;6.99;67.97;96970.84;5025422;28;20640;-76
2023/12/31 09:29:34;;;;;;;3.25;2.95;;;;;;;7.01;67.52;96978.72;5023290;28;20713;-76
2023/12/31 09:32:00;;;;;;;3.53;3.25;;;;;;;7.12;67.45;96975.41;4998461;28;20432;-77
2023/12/31 09:34:27;;;;;;;3.17;2.85;;;;;;;7.11;67.76;96973.75;5041843;28;20288;-76
2023/12/31 09:36:55;;;;;;;3.60;3.33;;;;;;;7.05;68.39;96971.88;5026061;28;20209;-76
2023/12/31 09:39:22;;;;;;;3.78;3.13;;;;;;;7.01;68.16;96967.94;5027517;28;20194;-76
2023/12/31 09:41:51;;;;;;;3.70;3.00;;;;;;;6.94;68.35;96956.34;5027423;28;20190;-76
2023/12/31 09:44:19;;;;;;;3.90;3.60;;;;;;;7.00;67.85;96958.22;5033669;28;20206;-75
2023/12/31 09:47:03;;;;;;;3.40;3.10;;;;;;;7.01;68.40;96957.19;4998907;28;20280;-74
2023/12/31 09:49:30;;;;;;;3.22;2.92;;;;;;;7.02;68.60;96946.22;5005114;28;20675;-77
2023/12/31 09:52:01;;;;;;;3.00;2.80;;;;;;;7.12;67.87;96951.22;5024960;28;20255;-74
2023/12/31 09:54:28;;;;;;;3.42;2.92;;;;;;;7.28;67.37;96949.94;5023544;28;20284;-75
2023/12/31 09:56:56;;;;;;;3.05;2.85;;;;;;;7.35;66.76;96943.53;5026658;28;20238;-74
2023/12/31 09:59:24;;;;;;;3.03;2.70;;;;;;;7.59;66.30;96938.50;4993790;28;20217;-76
2023/12/31 10:01:52;;;;;;;3.30;2.92;;;;;;;7.81;65.74;96937.19;5018585;28;20198;-75
2023/12/31 10:04:20;;;;;;;3.30;3.10;;;;;;;7.77;65.79;96930.59;5011947;28;20202;-74
2023/12/31 10:06:47;;;;;;;3.65;3.35;;;;;;;7.77;65.77;96925.22;5036725;28;20297;-75
2023/12/31 10:09:19;;;;;;;3.60;3.30;;;;;;;7.70;66.24;96916.31;5029000;28;20304;-75
2023/12/31 10:11:46;;;;;;;4.35;2.92;;;;;;;7.59;66.00;96900.81;5038170;28;20267;-75
2023/12/31 10:14:13;;;;;;;3.55;3.25;;;;;;;7.65;66.31;96881.13;5028179;28;20204;-75
2023/12/31 10:16:43;;;;;;;4.22;3.35;;;;;;;7.88;65.97;96870.66;5030197;28;20292;-74
2023/12/31 10:19:11;;;;;;;3.97;3.13;;;;;;;7.88;65.03;96878.75;5024715;28;20244;-75
2023/12/31 10:21:41;;;;;;;2.85;2.63;;;;;;;7.77;65.04;96874.03;5045239;28;20202;-76
2023/12/31 10:24:08;;;;;;;3.00;2.70;;;;;;;7.52;65.20;96859.63;5025482;28;20201;-75
2023/12/31 10:26:36;;;;;;;3.53;3.22;;;;;;;7.49;65.34;96855.47;5027221;28;20198;-76
2023/12/31 10:29:04;;;;;;;3.35;3.13;;;;;;;7.33;66.01;96848.72;5029574;28;20202;-75
2023/12/31 10:31:33;;;;;;;3.30;3.00;;;;;;;7.30;65.99;96835.66;5026550;28;20285;-76
2023/12/31 10:34:15;;;;;;;3.17;2.97;;;;;;;7.44;65.16;96841.03;5024681;28;20229;-74
2023/12/31 10:36:43;;;;;;;3.60;3.30;;;;;;;7.46;64.47;96838.94;5016368;28;20657;-74
2023/12/31 10:39:25;;;;;;;3.53;2.90;;;;;;;7.71;63.58;96846.09;5030051;28;20217;-73
2023/12/31 10:42:03;;;;;;;2.70;2.50;;;;;;;7.70;63.45;96828.28;5024310;28;20198;-74
2023/12/31 10:44:32;;;;;;;3.58;3.28;;;;;;;7.80;63.46;96835.09;5029444;28;20201;-72
2023/12/31 10:46:59;;;;;;;3.20;2.90;;;;;;;7.84;63.76;96836.28;5028402;28;20289;-72
2023/12/31 10:49:28;;;;;;;2.85;2.65;;;;;;;7.95;63.13;96832.94;5026483;28;20240;-71
2023/12/31 10:51:58;;;;;;;3.63;3.20;;;;;;;8.16;62.38;96829.06;5028707;28;20285;-72
2023/12/31 10:54:33;;;;;;;3.40;3.10;;;;;;;8.21;62.35;96826.56;5031982;28;20248;-72
2023/12/31 10:57:01;;;;;;;3.20;2.78;;;;;;;8.30;61.53;96831.47;5024023;28;21451;-72
2023/12/31 10:59:30;;;;;;;2.78;2.50;;;;;;;8.30;61.39;96814.47;5021539;28;20210;-71
2023/12/31 11:01:57;;;;;;;2.92;2.55;;;;;;;8.38;61.14;96800.78;5028343;28;20400;-72
2023/12/31 11:04:26;;;;;;;3.03;2.42;;;;;;;8.54;60.90;96797.50;5003586;28;20297;-73
2023/12/31 11:06:53;;;;;;;2.70;2.45;;;;;;;8.53;59.83;96800.44;5031749;28;20221;-72
2023/12/31 11:09:20;;;;;;;2.95;2.70;;;;;;;8.60;60.29;96785.84;5030918;28;20208;-71
2023/12/31 11:11:47;;;;;;;2.70;2.50;;;;;;;8.68;60.15;96774.78;5027067;28;20202;-73
2023/12/31 11:14:16;;;;;;;3.00;2.70;;;;;;;8.78;60.26;96768.88;5028944;28;20233;-72
2023/12/31 11:16:53;;;;;;;2.70;2.50;;;;;;;8.75;59.64;96762.06;5010598;28;20202;-72
2023/12/31 11:19:50;;;;;;;2.95;2.65;;;;;;;8.71;60.18;96768.97;5027469;28;20201;-72
2023/12/31 11:22:33;;;;;;;2.67;2.47;;;;;;;8.77;60.12;96784.22;5028625;28;20660;-72
2023/12/31 11:25:02;;;;;;;2.50;2.30;;;;;;;8.75;59.79;96778.25;5025682;28;20206;-72
2023/12/31 11:27:32;;;;;;;4.50;2.70;;;;;;;8.82;59.53;96791.66;5029857;28;20232;-72
2023/12/31 11:30:01;;;;;;;3.08;2.75;;;;;;;8.82;59.19;96801.63;5029616;28;20228;-72
2023/12/31 11:32:29;;;;;;;3.10;2.80;;;;;;;8.82;59.06;96807.84;5030062;28;20300;-72
2023/12/31 11:34:56;;;;;;;3.25;2.83;;;;;;;8.89;59.39;96826.69;5023195;28;20748;-72
2023/12/31 11:37:23;;;;;;;3.20;2.85;;;;;;;8.74;59.05;96867.50;5019832;28;20676;-72
2023/12/31 11:39:55;;;;;;;3.40;3.10;;;;;;;8.90;57.40;96883.13;5030524;28;20836;-72
2023/12/31 11:42:25;;;;;;;3.00;2.80;;;;;;;8.72;60.39;96927.06;5031550;28;20300;-72